createdAt,value
2023-01-26T00:01:46.825Z,62.80
2023-01-26T00:04:14.577Z,62.98
2023-01-26T00:06:42.480Z,63.02
2023-01-26T00:09:17.070Z,62.81
2023-01-26T00:11:45.114Z,62.73
2023-01-26T00:14:12.685Z,62.77
2023-01-26T00:16:40.980Z,63.40
2023-01-26T00:19:08.605Z,63.14
2023-01-26T00:21:36.498Z,63.43
2023-01-26T00:24:04.811Z,63.23
2023-01-26T00:26:32.873Z,62.95
2023-01-26T00:29:01.565Z,62.87
2023-01-26T00:31:29.631Z,62.37
2023-01-26T00:33:57.684Z,62.74
2023-01-26T00:36:26.015Z,62.32
2023-01-26T00:38:53.584Z,62.58
2023-01-26T00:41:39.977Z,62.96
2023-01-26T00:44:07.741Z,62.36
2023-01-26T00:46:36.069Z,63.05
2023-01-26T00:49:03.630Z,63.21
2023-01-26T00:51:31.405Z,63.69
2023-01-26T00:53:59.121Z,63.22
2023-01-26T00:56:28.228Z,63.12
2023-01-26T00:58:56.036Z,63.09
2023-01-26T01:01:23.957Z,63.39
2023-01-26T01:03:52.229Z,63.02
2023-01-26T01:06:20.256Z,63.42
2023-01-26T01:08:47.866Z,63.62
2023-01-26T01:11:15.841Z,63.84
2023-01-26T01:13:43.543Z,63.80
2023-01-26T01:16:15.357Z,63.72
2023-01-26T01:18:43.429Z,63.02
2023-01-26T01:21:15.118Z,63.53
2023-01-26T01:23:43.910Z,63.16
2023-01-26T01:26:12.180Z,63.70
2023-01-26T01:28:40.678Z,63.95
2023-01-26T01:31:13.237Z,64.05
2023-01-26T01:33:42.181Z,64.13
2023-01-26T01:36:15.100Z,64.11
2023-01-26T01:38:44.296Z,64.61
2023-01-26T01:41:13.061Z,63.91
2023-01-26T01:43:41.169Z,64.18
2023-01-26T01:46:35.190Z,63.98
2023-01-26T01:49:24.200Z,63.75
2023-01-26T01:52:06.151Z,63.81
2023-01-26T01:54:44.951Z,63.96
2023-01-26T01:57:28.608Z,63.74
2023-01-26T02:00:09.393Z,63.59
2023-01-26T02:03:09.288Z,63.27
2023-01-26T02:05:51.224Z,63.41
2023-01-26T02:08:22.349Z,62.57
2023-01-26T02:10:55.770Z,62.52
2023-01-26T02:13:25.983Z,62.77
2023-01-26T02:15:54.695Z,62.34
2023-01-26T02:18:22.758Z,62.62
2023-01-26T02:21:00.689Z,61.25
2023-01-26T02:24:12.885Z,61.09
2023-01-26T02:26:40.719Z,61.10
2023-01-26T02:29:11.595Z,61.84
2023-01-26T02:31:43.754Z,61.78
2023-01-26T02:34:11.752Z,61.86
2023-01-26T02:36:39.599Z,62.30
2023-01-26T02:40:01.951Z,62.07
2023-01-26T02:42:38.706Z,61.69
2023-01-26T02:45:17.342Z,61.82
2023-01-26T02:47:46.787Z,61.29
2023-01-26T02:50:15.472Z,61.29
2023-01-26T02:52:44.835Z,60.88
2023-01-26T02:55:25.261Z,60.35
2023-01-26T02:57:59.479Z,60.22
2023-01-26T03:00:37.399Z,60.36
2023-01-26T03:03:26.751Z,59.48
2023-01-26T03:05:54.589Z,59.40
2023-01-26T03:08:22.141Z,58.65
2023-01-26T03:10:50.013Z,59.11
2023-01-26T03:13:18.660Z,59.50
2023-01-26T03:15:52.750Z,59.69
2023-01-26T03:18:42.029Z,59.71
2023-01-26T03:21:34.045Z,59.02
2023-01-26T03:24:20.891Z,59.63
2023-01-26T03:27:08.386Z,59.81
2023-01-26T03:29:36.500Z,60.30
2023-01-26T03:32:04.825Z,60.27
2023-01-26T03:34:33.522Z,59.91
2023-01-26T03:37:01.479Z,60.12
2023-01-26T03:39:59.553Z,60.03
2023-01-26T03:42:46.696Z,59.19
2023-01-26T03:45:33.431Z,59.00
2023-01-26T03:48:29.990Z,59.45
2023-01-26T03:51:17.007Z,58.93
2023-01-26T03:54:03.907Z,58.33
2023-01-26T03:56:34.630Z,58.51
2023-01-26T03:59:12.330Z,58.32
2023-01-26T04:02:04.509Z,58.68
2023-01-26T04:04:52.068Z,58.75
2023-01-26T04:07:41.987Z,58.50
2023-01-26T04:10:10.974Z,59.29
2023-01-26T04:12:38.817Z,58.24
2023-01-26T04:15:37.007Z,57.97
2023-01-26T04:18:27.406Z,57.90
2023-01-26T04:21:15.175Z,58.30
2023-01-26T04:23:44.858Z,57.19
2023-01-26T04:26:12.819Z,57.49
2023-01-26T04:28:41.238Z,57.29
2023-01-26T04:31:09.742Z,57.01
2023-01-26T04:33:38.583Z,57.34
2023-01-26T04:36:08.622Z,57.31
2023-01-26T04:38:39.839Z,56.65
2023-01-26T04:41:08.027Z,56.43
2023-01-26T04:43:42.577Z,57.71
2023-01-26T04:46:11.290Z,56.90
2023-01-26T04:48:40.946Z,57.16
2023-01-26T04:51:22.218Z,57.49
2023-01-26T04:53:51.253Z,56.97
2023-01-26T04:56:29.513Z,57.89
2023-01-26T04:59:06.375Z,56.34
2023-01-26T05:01:36.684Z,56.08
2023-01-26T05:04:07.932Z,55.92
2023-01-26T05:06:39.037Z,56.77
2023-01-26T05:09:06.555Z,56.54
2023-01-26T05:11:36.736Z,57.01
2023-01-26T05:14:19.271Z,57.92
2023-01-26T05:17:11.262Z,56.80
2023-01-26T05:20:05.373Z,56.66
2023-01-26T05:22:41.565Z,72.36
2023-01-26T05:25:29.281Z,69.79
2023-01-26T05:28:06.597Z,65.17
2023-01-26T05:30:34.365Z,58.66
2023-01-26T05:33:08.149Z,55.65
2023-01-26T05:35:36.237Z,51.78
2023-01-26T05:38:05.870Z,50.27
2023-01-26T05:40:34.738Z,47.58
2023-01-26T05:43:02.708Z,45.19
2023-01-26T05:45:48.768Z,46.95
2023-01-26T05:48:18.005Z,48.09
2023-01-26T05:50:47.433Z,49.05
2023-01-26T05:53:18.193Z,49.51
2023-01-26T05:55:46.280Z,50.59
2023-01-26T05:58:14.736Z,52.12
2023-01-26T06:00:42.351Z,53.12
2023-01-26T06:03:17.111Z,53.17
2023-01-26T06:05:52.031Z,54.20
2023-01-26T06:08:24.548Z,54.92
2023-01-26T06:11:24.865Z,55.55
2023-01-26T06:14:11.439Z,56.29
2023-01-26T06:16:39.407Z,56.29
2023-01-26T06:19:10.954Z,57.04
2023-01-26T06:21:40.247Z,57.56
2023-01-26T06:24:08.451Z,57.66
2023-01-26T06:26:36.220Z,57.63
2023-01-26T06:29:04.162Z,58.33
2023-01-26T06:31:37.363Z,58.30
2023-01-26T06:34:06.706Z,58.87
2023-01-26T06:36:39.183Z,58.79
2023-01-26T06:39:11.674Z,59.39
2023-01-26T06:41:42.379Z,60.03
2023-01-26T06:44:10.875Z,59.90
2023-01-26T06:46:39.565Z,58.96
2023-01-26T06:49:07.633Z,59.45
2023-01-26T06:51:48.109Z,59.85
2023-01-26T06:54:17.200Z,60.50
2023-01-26T06:57:01.303Z,61.23
2023-01-26T06:59:50.304Z,61.99
2023-01-26T07:02:23.662Z,61.63
2023-01-26T07:04:52.613Z,62.27
2023-01-26T07:07:20.205Z,62.46
2023-01-26T07:09:48.293Z,62.44
2023-01-26T07:12:15.909Z,62.65
2023-01-26T07:14:43.872Z,62.77
2023-01-26T07:17:54.192Z,63.20
2023-01-26T07:21:25.066Z,63.35
2023-01-26T07:23:53.438Z,63.78
2023-01-26T07:26:21.521Z,64.00
2023-01-26T07:28:49.260Z,63.30
2023-01-26T07:31:17.528Z,63.96
2023-01-26T07:33:45.227Z,64.33
2023-01-26T07:36:13.067Z,64.52
2023-01-26T07:38:41.671Z,64.66
2023-01-26T07:41:12.999Z,64.41
2023-01-26T07:43:42.271Z,65.16
2023-01-26T07:46:32.279Z,64.81
2023-01-26T07:49:04.880Z,64.77
2023-01-26T07:51:44.764Z,64.56
2023-01-26T07:54:39.555Z,64.02
2023-01-26T07:57:09.226Z,64.31
2023-01-26T07:59:36.941Z,63.61
2023-01-26T08:02:04.838Z,63.24
2023-01-26T08:04:32.465Z,63.17
2023-01-26T08:07:00.558Z,61.98
2023-01-26T08:09:28.208Z,61.54
2023-01-26T08:11:59.503Z,61.73
2023-01-26T08:14:38.198Z,62.21
2023-01-26T08:17:13.186Z,62.71
2023-01-26T08:19:40.684Z,63.24
2023-01-26T08:22:08.618Z,63.23
2023-01-26T08:24:36.175Z,63.42
2023-01-26T08:27:04.557Z,63.84
2023-01-26T08:29:32.175Z,64.18
2023-01-26T08:32:00.188Z,64.72
2023-01-26T08:34:27.868Z,65.43
2023-01-26T08:36:55.907Z,65.30
2023-01-26T08:39:23.490Z,65.44
2023-01-26T08:41:51.468Z,65.73
2023-01-26T08:44:19.183Z,65.94
2023-01-26T08:46:47.259Z,65.89
2023-01-26T08:49:15.045Z,66.21
2023-01-26T08:51:43.252Z,66.15
2023-01-26T08:54:10.773Z,65.96
2023-01-26T08:56:38.919Z,65.81
2023-01-26T08:59:06.551Z,65.63
2023-01-26T09:01:34.572Z,66.28
2023-01-26T09:04:03.104Z,66.24
2023-01-26T09:06:33.163Z,66.44
2023-01-26T09:09:00.967Z,66.56
2023-01-26T09:11:29.159Z,66.59
2023-01-26T09:13:56.972Z,66.33
2023-01-26T09:16:25.591Z,66.65
2023-01-26T09:18:54.276Z,66.57
2023-01-26T09:21:24.281Z,66.25
2023-01-26T09:23:52.822Z,66.38
2023-01-26T09:26:20.926Z,66.62
2023-01-26T09:28:53.114Z,65.11
2023-01-26T09:31:21.674Z,64.46
2023-01-26T09:33:50.860Z,63.56
2023-01-26T09:36:19.526Z,63.10
2023-01-26T09:38:47.277Z,63.37
2023-01-26T09:41:42.909Z,62.52
2023-01-26T09:44:24.945Z,62.35
2023-01-26T09:47:01.425Z,63.00
2023-01-26T09:49:51.596Z,63.11
2023-01-26T09:52:35.471Z,63.25
2023-01-26T09:55:15.964Z,63.67
2023-01-26T09:57:50.803Z,63.59
2023-01-26T10:00:31.301Z,63.82
2023-01-26T10:03:29.410Z,63.33
2023-01-26T10:06:13.565Z,63.07
2023-01-26T10:09:08.560Z,63.33
2023-01-26T10:11:51.095Z,63.24
2023-01-26T10:14:44.516Z,62.47
2023-01-26T10:17:22.158Z,62.49
2023-01-26T10:19:57.269Z,62.41
2023-01-26T10:22:44.883Z,62.10
2023-01-26T10:25:21.490Z,62.56
2023-01-26T10:27:49.032Z,62.04
2023-01-26T10:30:19.813Z,61.86
2023-01-26T10:32:52.813Z,61.70
2023-01-26T10:35:24.666Z,61.13
2023-01-26T10:37:53.313Z,60.71
2023-01-26T10:40:21.779Z,60.95
2023-01-26T10:43:01.876Z,61.27
2023-01-26T10:45:33.526Z,60.11
2023-01-26T10:48:19.734Z,60.63
2023-01-26T10:50:48.705Z,60.30
2023-01-26T10:53:24.771Z,60.97
2023-01-26T10:56:16.068Z,60.14
2023-01-26T10:58:47.406Z,60.17
2023-01-26T11:01:18.748Z,60.67
2023-01-26T11:04:10.323Z,60.82
2023-01-26T11:06:38.922Z,60.12
2023-01-26T11:09:31.842Z,60.88
2023-01-26T11:12:08.446Z,60.43
2023-01-26T11:14:36.163Z,60.35
2023-01-26T11:17:37.329Z,60.29
2023-01-26T11:20:31.152Z,60.55
2023-01-26T11:23:07.850Z,61.08
2023-01-26T11:26:17.048Z,60.74
2023-01-26T11:29:15.504Z,60.60
2023-01-26T11:32:04.089Z,60.17
2023-01-26T11:34:54.272Z,60.67
2023-01-26T11:37:48.669Z,60.54
2023-01-26T11:40:35.152Z,60.44
2023-01-26T11:43:32.924Z,60.94
2023-01-26T11:46:25.295Z,61.37
2023-01-26T11:49:34.746Z,61.84
2023-01-26T11:52:44.227Z,62.19
2023-01-26T11:55:42.669Z,62.17
2023-01-26T11:58:48.307Z,61.74
2023-01-26T12:01:41.556Z,61.97
2023-01-26T12:04:20.146Z,62.24
2023-01-26T12:07:03.687Z,62.89
2023-01-26T12:09:42.792Z,63.02
2023-01-26T12:12:43.182Z,63.36
2023-01-26T12:15:32.300Z,63.63
2023-01-26T12:18:17.385Z,64.75
2023-01-26T12:20:58.920Z,65.36
2023-01-26T12:23:51.376Z,65.75
2023-01-26T12:26:23.272Z,66.38
2023-01-26T12:29:27.909Z,67.11
2023-01-26T12:32:11.200Z,67.98
2023-01-26T12:34:38.850Z,68.59
2023-01-26T12:37:24.579Z,69.21
2023-01-26T12:40:50.434Z,70.15
2023-01-26T12:43:44.591Z,71.39
2023-01-26T12:46:14.158Z,71.77
2023-01-26T12:49:17.376Z,72.12
2023-01-26T12:51:53.867Z,72.10
2023-01-26T12:54:45.611Z,72.25
2023-01-26T12:57:21.221Z,71.78
2023-01-26T12:59:50.169Z,71.39
2023-01-26T13:02:27.358Z,71.51
2023-01-26T13:05:01.670Z,71.45
2023-01-26T13:07:37.315Z,71.41
2023-01-26T13:10:28.003Z,71.72
2023-01-26T13:13:20.971Z,72.78
2023-01-26T13:16:15.401Z,73.56
2023-01-26T13:18:52.037Z,74.26
2023-01-26T13:21:38.402Z,75.80
2023-01-26T13:24:17.947Z,76.12
2023-01-26T13:26:59.684Z,77.05
2023-01-26T13:29:32.952Z,77.65
2023-01-26T13:32:20.793Z,78.57
2023-01-26T13:34:54.584Z,79.71
2023-01-26T13:37:36.722Z,79.40
2023-01-26T13:40:20.468Z,79.29
2023-01-26T13:43:26.754Z,79.60
2023-01-26T13:46:26.936Z,79.91
2023-01-26T13:48:57.066Z,79.83
2023-01-26T13:51:29.078Z,79.59
2023-01-26T13:54:04.536Z,80.18
2023-01-26T13:57:05.160Z,80.61
2023-01-26T13:59:34.158Z,81.20
2023-01-26T14:02:01.732Z,80.95
2023-01-26T14:04:32.328Z,81.44
2023-01-26T14:07:19.020Z,81.48
2023-01-26T14:09:55.918Z,82.16
2023-01-26T14:12:47.163Z,82.24
2023-01-26T14:15:30.870Z,82.78
2023-01-26T14:18:05.210Z,82.87
2023-01-26T14:20:40.217Z,82.99
2023-01-26T14:23:19.097Z,83.15
2023-01-26T14:26:01.097Z,83.08
2023-01-26T14:28:34.792Z,83.30
2023-01-26T14:31:13.066Z,83.55
2023-01-26T14:33:40.882Z,83.17
2023-01-26T14:36:17.560Z,83.24
2023-01-26T14:38:48.884Z,83.60
2023-01-26T14:41:19.666Z,84.09
2023-01-26T14:43:51.493Z,84.04
2023-01-26T14:46:42.226Z,84.09
2023-01-26T14:49:42.862Z,84.00
2023-01-26T14:52:30.561Z,84.79
2023-01-26T14:55:04.575Z,84.69
2023-01-26T14:57:32.890Z,84.42
2023-01-26T15:00:02.610Z,84.66
2023-01-26T15:02:42.790Z,84.55
2023-01-26T15:05:23.576Z,84.77
2023-01-26T15:08:03.687Z,84.46
2023-01-26T15:10:43.263Z,83.94
2023-01-26T15:13:11.173Z,84.33
2023-01-26T15:15:43.146Z,84.17
2023-01-26T15:18:13.985Z,84.39
2023-01-26T15:20:51.183Z,84.00
2023-01-26T15:23:29.222Z,83.77
2023-01-26T15:26:23.939Z,83.69
2023-01-26T15:28:54.474Z,84.11
2023-01-26T15:31:36.338Z,84.59
2023-01-26T15:34:06.593Z,83.55
2023-01-26T15:36:54.575Z,83.51
2023-01-26T15:39:22.481Z,82.86
2023-01-26T15:42:15.741Z,83.00
2023-01-26T15:44:43.819Z,82.43
2023-01-26T15:47:13.916Z,82.68
2023-01-26T15:49:42.936Z,83.30
2023-01-26T15:52:24.896Z,83.57
2023-01-26T15:54:53.976Z,83.99
2023-01-26T15:57:21.599Z,84.68
2023-01-26T15:59:49.667Z,85.34
2023-01-26T16:02:21.517Z,86.81
2023-01-26T16:04:49.689Z,86.42
2023-01-26T16:07:19.509Z,87.05
2023-01-26T16:09:49.265Z,87.98
2023-01-26T16:12:33.514Z,87.97
2023-01-26T16:15:02.067Z,88.37
2023-01-26T16:17:30.029Z,88.99
2023-01-26T16:19:57.971Z,89.31
2023-01-26T16:22:25.605Z,88.91
2023-01-26T16:24:53.770Z,89.90
2023-01-26T16:27:21.765Z,89.99
2023-01-26T16:29:49.725Z,90.12
2023-01-26T16:32:29.055Z,89.81
2023-01-26T16:34:57.200Z,90.01
2023-01-26T16:37:24.880Z,90.52
2023-01-26T16:39:53.316Z,90.35
2023-01-26T16:42:21.779Z,90.83
2023-01-26T16:44:50.042Z,91.25
2023-01-26T16:47:17.585Z,91.00
2023-01-26T16:49:45.563Z,91.09
2023-01-26T16:52:13.030Z,91.09
2023-01-26T16:54:40.796Z,92.02
2023-01-26T16:57:09.096Z,92.00
2023-01-26T16:59:36.970Z,90.94
2023-01-26T17:02:04.734Z,90.46
2023-01-26T17:04:32.629Z,90.10
2023-01-26T17:07:00.198Z,90.92
2023-01-26T17:09:28.691Z,90.91
2023-01-26T17:11:56.317Z,91.28
2023-01-26T17:14:24.572Z,90.61
2023-01-26T17:16:52.238Z,91.47
2023-01-26T17:19:21.185Z,91.03
2023-01-26T17:21:52.296Z,91.28
2023-01-26T17:24:20.602Z,91.86
2023-01-26T17:26:48.300Z,91.66
2023-01-26T17:29:16.240Z,91.77
2023-01-26T17:31:43.830Z,91.44
2023-01-26T17:34:12.523Z,91.38
2023-01-26T17:36:40.194Z,91.13
2023-01-26T17:39:10.178Z,91.28
2023-01-26T17:41:37.653Z,90.59
2023-01-26T17:44:05.416Z,91.21
2023-01-26T17:46:32.879Z,91.03
2023-01-26T17:49:00.647Z,91.70
2023-01-26T17:51:28.201Z,91.65
2023-01-26T17:53:56.321Z,91.91
2023-01-26T17:56:24.971Z,92.43
2023-01-26T17:58:57.013Z,92.08
2023-01-26T18:01:26.211Z,92.32
2023-01-26T18:03:53.992Z,92.53
2023-01-26T18:06:21.870Z,92.36
2023-01-26T18:08:49.705Z,92.26
2023-01-26T18:11:17.896Z,91.55
2023-01-26T18:13:45.687Z,92.01
2023-01-26T18:16:20.122Z,91.42
2023-01-26T18:18:48.741Z,91.48
2023-01-26T18:21:27.126Z,91.87
2023-01-26T18:23:59.977Z,91.66
2023-01-26T18:26:34.378Z,91.67
2023-01-26T18:29:03.337Z,91.28
2023-01-26T18:31:37.366Z,90.99
2023-01-26T18:34:05.458Z,91.26
2023-01-26T18:36:33.036Z,91.10
2023-01-26T18:39:08.775Z,90.32
2023-01-26T18:41:36.346Z,90.34
2023-01-26T18:44:04.437Z,90.23
2023-01-26T18:46:32.114Z,90.59
2023-01-26T18:49:03.600Z,90.39
2023-01-26T18:51:34.916Z,90.46
2023-01-26T18:54:04.319Z,91.13
2023-01-26T18:56:32.584Z,91.68
2023-01-26T18:59:00.425Z,91.87
2023-01-26T19:01:28.063Z,92.78
2023-01-26T19:03:57.893Z,92.75
2023-01-26T19:06:26.762Z,93.00
2023-01-26T19:09:04.982Z,92.78
2023-01-26T19:11:36.134Z,93.22
2023-01-26T19:14:06.006Z,92.54
2023-01-26T19:16:35.199Z,90.78
2023-01-26T19:19:03.088Z,91.18
2023-01-26T19:21:33.657Z,92.28
2023-01-26T19:24:07.928Z,91.96
2023-01-26T19:26:35.924Z,92.32
2023-01-26T19:29:04.489Z,92.67
2023-01-26T19:31:35.147Z,91.92
2023-01-26T19:34:06.639Z,92.19
2023-01-26T19:36:36.711Z,92.89
2023-01-26T19:39:05.801Z,92.28
2023-01-26T19:41:35.276Z,92.51
2023-01-26T19:44:02.796Z,92.66
2023-01-26T19:46:30.807Z,92.62
2023-01-26T19:48:58.276Z,92.77
2023-01-26T19:51:27.416Z,93.25
2023-01-26T19:53:58.572Z,92.83
2023-01-26T19:56:35.134Z,93.04
2023-01-26T19:59:07.861Z,93.12
2023-01-26T20:01:37.192Z,92.65
2023-01-26T20:04:13.932Z,92.51
2023-01-26T20:06:42.749Z,92.66
2023-01-26T20:09:10.824Z,92.53
2023-01-26T20:11:38.776Z,93.65
2023-01-26T20:14:10.000Z,94.40
2023-01-26T20:16:38.354Z,94.00
2023-01-26T20:19:06.399Z,94.15
2023-01-26T20:21:35.701Z,94.40
2023-01-26T20:24:06.126Z,93.96
2023-01-26T20:26:36.064Z,93.67
2023-01-26T20:29:05.149Z,93.21
2023-01-26T20:31:33.839Z,93.82
2023-01-26T20:34:02.179Z,93.31
2023-01-26T20:36:31.514Z,92.80
2023-01-26T20:38:59.333Z,93.58
2023-01-26T20:41:30.749Z,93.42
2023-01-26T20:44:03.603Z,93.61
2023-01-26T20:46:40.853Z,93.69
2023-01-26T20:49:16.105Z,93.31
2023-01-26T20:51:46.459Z,92.92
2023-01-26T20:54:15.651Z,93.00
2023-01-26T20:56:45.842Z,92.69
2023-01-26T20:59:13.676Z,93.08
2023-01-26T21:01:41.528Z,93.28
2023-01-26T21:04:09.117Z,92.82
2023-01-26T21:06:37.645Z,93.24
2023-01-26T21:09:05.585Z,93.26
2023-01-26T21:11:34.270Z,92.28
2023-01-26T21:14:02.641Z,92.22
2023-01-26T21:16:33.009Z,92.10
2023-01-26T21:19:00.638Z,92.66
2023-01-26T21:21:28.851Z,92.70
2023-01-26T21:23:56.638Z,92.80
2023-01-26T21:26:44.924Z,93.04
2023-01-26T21:29:17.126Z,93.08
2023-01-26T21:32:03.243Z,93.44
2023-01-26T21:34:34.798Z,93.38
2023-01-26T21:37:05.267Z,94.12
2023-01-26T21:40:14.606Z,93.74
2023-01-26T21:43:16.546Z,93.62
2023-01-26T21:46:28.135Z,94.28
2023-01-26T21:49:47.001Z,94.68
2023-01-26T21:52:58.581Z,93.87
2023-01-26T21:55:53.327Z,94.40
2023-01-26T21:59:05.212Z,96.01
2023-01-26T22:01:40.656Z,96.03
2023-01-26T22:04:58.069Z,95.73
2023-01-26T22:08:21.810Z,96.32
2023-01-26T22:15:09.345Z,98.63
2023-01-26T22:18:16.885Z,99.10
2023-01-26T22:22:03.294Z,98.74
2023-01-26T22:25:50.817Z,98.90
2023-01-26T22:28:56.541Z,99.05
2023-01-26T22:32:08.884Z,99.13
2023-01-26T22:34:45.444Z,99.49
2023-01-26T22:37:14.825Z,99.42
2023-01-26T22:39:54.492Z,99.13
2023-01-26T22:42:37.798Z,98.74
2023-01-26T22:45:22.225Z,98.37
2023-01-26T22:48:00.758Z,98.50
2023-01-26T22:50:44.222Z,99.13
2023-01-26T22:53:26.573Z,99.49
2023-01-26T22:56:25.452Z,99.43
2023-01-26T22:59:09.743Z,99.89
2023-01-26T23:01:51.355Z,99.96
2023-01-26T23:04:28.238Z,99.64
2023-01-26T23:07:05.689Z,99.80
2023-01-26T23:09:43.441Z,100.00
2023-01-26T23:12:12.028Z,100.00
2023-01-26T23:14:39.909Z,100.00
2023-01-26T23:17:08.322Z,100.00
2023-01-26T23:19:36.454Z,100.00
2023-01-26T23:22:04.681Z,100.00
2023-01-26T23:24:32.636Z,100.00
2023-01-26T23:27:00.307Z,100.00
2023-01-26T23:29:28.269Z,100.00
2023-01-26T23:36:19.128Z,100.00
2023-01-26T23:38:54.491Z,100.00
2023-01-26T23:41:23.392Z,100.00
2023-01-26T23:43:52.199Z,100.00
2023-01-26T23:47:00.577Z,100.00
2023-01-26T23:49:38.748Z,100.00
2023-01-26T23:53:28.478Z,100.00
2023-01-26T23:56:18.208Z,100.00
2023-01-26T23:58:46.904Z,100.00
